sensor_id;sensor_type;location;lat;lon;timestamp;P1;durP1;ratioP1;P2;durP2;ratioP2
18304;SDS011;9278;52.156;21.048;2022-10-16T00:01:06;26.25;;;13.70;;
18304;SDS011;9278;52.156;21.048;2022-10-16T00:03:35;27.42;;;13.90;;
18304;SDS011;9278;52.156;21.048;2022-10-16T00:06:04;25.60;;;13.77;;
18304;SDS011;9278;52.156;21.048;2022-10-16T00:08:34;27.13;;;14.60;;
18304;SDS011;9278;52.156;21.048;2022-10-16T00:11:04;29.80;;;14.45;;
18304;SDS011;9278;52.156;21.048;2022-10-16T00:13:34;25.10;;;14.05;;
18304;SDS011;9278;52.156;21.048;2022-10-16T00:16:04;22.73;;;13.45;;
18304;SDS011;9278;52.156;21.048;2022-10-16T00:18:33;24.60;;;14.18;;
18304;SDS011;9278;52.156;21.048;2022-10-16T00:21:03;25.92;;;14.75;;
18304;SDS011;9278;52.156;21.048;2022-10-16T00:23:32;28.58;;;14.77;;
18304;SDS011;9278;52.156;21.048;2022-10-16T00:26:04;26.30;;;14.77;;
18304;SDS011;9278;52.156;21.048;2022-10-16T00:28:34;25.23;;;14.65;;
18304;SDS011;9278;52.156;21.048;2022-10-16T00:31:03;29.92;;;15.88;;
18304;SDS011;9278;52.156;21.048;2022-10-16T00:33:32;28.95;;;15.07;;
18304;SDS011;9278;52.156;21.048;2022-10-16T00:36:00;26.08;;;15.00;;
18304;SDS011;9278;52.156;21.048;2022-10-16T00:38:30;25.55;;;14.95;;
18304;SDS011;9278;52.156;21.048;2022-10-16T00:41:00;26.85;;;15.93;;
18304;SDS011;9278;52.156;21.048;2022-10-16T00:43:32;26.77;;;15.82;;
18304;SDS011;9278;52.156;21.048;2022-10-16T00:46:09;28.10;;;16.17;;
18304;SDS011;9278;52.156;21.048;2022-10-16T00:48:43;31.33;;;16.40;;
18304;SDS011;9278;52.156;21.048;2022-10-16T00:51:16;33.65;;;16.60;;
18304;SDS011;9278;52.156;21.048;2022-10-16T00:53:48;32.33;;;17.05;;
18304;SDS011;9278;52.156;21.048;2022-10-16T00:56:18;30.23;;;16.00;;
18304;SDS011;9278;52.156;21.048;2022-10-16T00:58:47;28.60;;;15.93;;
18304;SDS011;9278;52.156;21.048;2022-10-16T01:01:15;26.95;;;15.60;;
18304;SDS011;9278;52.156;21.048;2022-10-16T01:03:44;30.23;;;15.18;;
18304;SDS011;9278;52.156;21.048;2022-10-16T01:06:19;29.50;;;15.70;;
18304;SDS011;9278;52.156;21.048;2022-10-16T01:08:58;30.05;;;15.27;;
18304;SDS011;9278;52.156;21.048;2022-10-16T01:11:41;28.48;;;15.30;;
18304;SDS011;9278;52.156;21.048;2022-10-16T01:14:18;29.52;;;15.80;;
18304;SDS011;9278;52.156;21.048;2022-10-16T01:16:53;28.50;;;16.17;;
18304;SDS011;9278;52.156;21.048;2022-10-16T01:19:30;28.00;;;15.35;;
18304;SDS011;9278;52.156;21.048;2022-10-16T01:22:12;26.52;;;15.43;;
18304;SDS011;9278;52.156;21.048;2022-10-16T01:24:43;32.58;;;16.05;;
18304;SDS011;9278;52.156;21.048;2022-10-16T01:27:20;29.75;;;15.00;;
18304;SDS011;9278;52.156;21.048;2022-10-16T01:29:53;30.27;;;16.58;;
18304;SDS011;9278;52.156;21.048;2022-10-16T01:32:28;32.00;;;16.95;;
18304;SDS011;9278;52.156;21.048;2022-10-16T01:35:02;31.60;;;15.18;;
18304;SDS011;9278;52.156;21.048;2022-10-16T01:37:33;29.15;;;15.82;;
18304;SDS011;9278;52.156;21.048;2022-10-16T01:40:07;33.85;;;16.52;;
18304;SDS011;9278;52.156;21.048;2022-10-16T01:42:40;32.72;;;16.55;;
18304;SDS011;9278;52.156;21.048;2022-10-16T01:45:12;31.27;;;16.35;;
18304;SDS011;9278;52.156;21.048;2022-10-16T01:47:44;34.38;;;17.15;;
18304;SDS011;9278;52.156;21.048;2022-10-16T01:50:14;31.23;;;16.90;;
18304;SDS011;9278;52.156;21.048;2022-10-16T01:52:46;30.13;;;16.38;;
18304;SDS011;9278;52.156;21.048;2022-10-16T01:55:20;34.28;;;16.85;;
18304;SDS011;9278;52.156;21.048;2022-10-16T01:57:53;37.78;;;16.48;;
18304;SDS011;9278;52.156;21.048;2022-10-16T02:00:23;30.52;;;16.35;;
18304;SDS011;9278;52.156;21.048;2022-10-16T02:02:53;30.42;;;16.60;;
18304;SDS011;9278;52.156;21.048;2022-10-16T02:05:23;32.13;;;16.98;;
18304;SDS011;9278;52.156;21.048;2022-10-16T02:07:55;28.95;;;16.60;;
18304;SDS011;9278;52.156;21.048;2022-10-16T02:10:28;31.63;;;16.42;;
18304;SDS011;9278;52.156;21.048;2022-10-16T02:13:00;31.77;;;16.77;;
18304;SDS011;9278;52.156;21.048;2022-10-16T02:15:32;28.92;;;16.05;;
18304;SDS011;9278;52.156;21.048;2022-10-16T02:18:01;29.83;;;16.08;;
18304;SDS011;9278;52.156;21.048;2022-10-16T02:20:31;32.40;;;16.73;;
18304;SDS011;9278;52.156;21.048;2022-10-16T02:23:04;35.72;;;16.45;;
18304;SDS011;9278;52.156;21.048;2022-10-16T02:25:37;30.70;;;16.70;;
18304;SDS011;9278;52.156;21.048;2022-10-16T02:28:11;29.80;;;17.60;;
18304;SDS011;9278;52.156;21.048;2022-10-16T02:30:44;31.95;;;17.75;;
18304;SDS011;9278;52.156;21.048;2022-10-16T02:33:16;32.85;;;18.60;;
18304;SDS011;9278;52.156;21.048;2022-10-16T02:35:46;34.63;;;18.25;;
18304;SDS011;9278;52.156;21.048;2022-10-16T02:38:17;31.92;;;17.75;;
18304;SDS011;9278;52.156;21.048;2022-10-16T02:40:47;29.90;;;17.02;;
18304;SDS011;9278;52.156;21.048;2022-10-16T02:43:17;31.98;;;17.98;;
18304;SDS011;9278;52.156;21.048;2022-10-16T02:45:46;29.27;;;17.52;;
18304;SDS011;9278;52.156;21.048;2022-10-16T02:48:14;33.60;;;18.00;;
18304;SDS011;9278;52.156;21.048;2022-10-16T02:50:43;30.33;;;17.25;;
18304;SDS011;9278;52.156;21.048;2022-10-16T02:53:11;29.75;;;17.20;;
18304;SDS011;9278;52.156;21.048;2022-10-16T02:55:39;38.65;;;17.65;;
18304;SDS011;9278;52.156;21.048;2022-10-16T02:58:08;32.75;;;17.70;;
18304;SDS011;9278;52.156;21.048;2022-10-16T03:00:37;29.17;;;17.52;;
18304;SDS011;9278;52.156;21.048;2022-10-16T03:03:06;31.30;;;17.52;;
18304;SDS011;9278;52.156;21.048;2022-10-16T03:05:34;28.92;;;17.30;;
18304;SDS011;9278;52.156;21.048;2022-10-16T03:08:02;35.47;;;18.20;;
18304;SDS011;9278;52.156;21.048;2022-10-16T03:10:31;32.55;;;17.73;;
18304;SDS011;9278;52.156;21.048;2022-10-16T03:12:59;30.45;;;17.50;;
18304;SDS011;9278;52.156;21.048;2022-10-16T03:15:27;37.38;;;17.70;;
18304;SDS011;9278;52.156;21.048;2022-10-16T03:17:58;31.23;;;17.52;;
18304;SDS011;9278;52.156;21.048;2022-10-16T03:20:26;30.35;;;16.80;;
18304;SDS011;9278;52.156;21.048;2022-10-16T03:22:55;28.45;;;16.60;;
18304;SDS011;9278;52.156;21.048;2022-10-16T03:25:23;28.40;;;17.05;;
18304;SDS011;9278;52.156;21.048;2022-10-16T03:27:51;29.50;;;17.13;;
18304;SDS011;9278;52.156;21.048;2022-10-16T03:30:20;30.42;;;17.55;;
18304;SDS011;9278;52.156;21.048;2022-10-16T03:32:48;29.02;;;16.23;;
18304;SDS011;9278;52.156;21.048;2022-10-16T03:35:21;29.30;;;16.83;;
18304;SDS011;9278;52.156;21.048;2022-10-16T03:37:50;33.50;;;16.95;;
18304;SDS011;9278;52.156;21.048;2022-10-16T03:40:19;31.17;;;16.70;;
18304;SDS011;9278;52.156;21.048;2022-10-16T03:42:47;27.08;;;15.63;;
18304;SDS011;9278;52.156;21.048;2022-10-16T03:45:16;28.92;;;16.38;;
18304;SDS011;9278;52.156;21.048;2022-10-16T03:47:44;33.17;;;16.48;;
18304;SDS011;9278;52.156;21.048;2022-10-16T03:50:12;29.20;;;15.75;;
18304;SDS011;9278;52.156;21.048;2022-10-16T03:52:42;33.67;;;15.45;;
18304;SDS011;9278;52.156;21.048;2022-10-16T03:55:10;27.67;;;16.27;;
18304;SDS011;9278;52.156;21.048;2022-10-16T03:57:38;36.45;;;15.73;;
18304;SDS011;9278;52.156;21.048;2022-10-16T04:00:07;27.17;;;15.57;;
18304;SDS011;9278;52.156;21.048;2022-10-16T04:02:39;28.30;;;15.65;;
18304;SDS011;9278;52.156;21.048;2022-10-16T04:05:07;29.83;;;16.98;;
18304;SDS011;9278;52.156;21.048;2022-10-16T04:07:36;27.92;;;15.25;;
18304;SDS011;9278;52.156;21.048;2022-10-16T04:10:06;29.00;;;15.68;;
18304;SDS011;9278;52.156;21.048;2022-10-16T04:12:35;30.08;;;15.90;;
18304;SDS011;9278;52.156;21.048;2022-10-16T04:15:03;29.42;;;15.60;;
18304;SDS011;9278;52.156;21.048;2022-10-16T04:17:32;25.77;;;15.60;;
18304;SDS011;9278;52.156;21.048;2022-10-16T04:20:00;29.63;;;16.08;;
18304;SDS011;9278;52.156;21.048;2022-10-16T04:22:28;29.42;;;16.05;;
18304;SDS011;9278;52.156;21.048;2022-10-16T04:24:56;25.15;;;16.15;;
18304;SDS011;9278;52.156;21.048;2022-10-16T04:27:26;30.17;;;15.82;;
18304;SDS011;9278;52.156;21.048;2022-10-16T04:29:57;30.52;;;16.67;;
18304;SDS011;9278;52.156;21.048;2022-10-16T04:32:26;29.42;;;16.33;;
18304;SDS011;9278;52.156;21.048;2022-10-16T04:34:54;26.15;;;15.77;;
18304;SDS011;9278;52.156;21.048;2022-10-16T04:37:23;27.08;;;15.55;;
18304;SDS011;9278;52.156;21.048;2022-10-16T04:39:53;29.60;;;15.50;;
18304;SDS011;9278;52.156;21.048;2022-10-16T04:42:21;30.00;;;16.20;;
18304;SDS011;9278;52.156;21.048;2022-10-16T04:44:51;27.23;;;15.10;;
18304;SDS011;9278;52.156;21.048;2022-10-16T04:47:19;34.05;;;16.40;;
18304;SDS011;9278;52.156;21.048;2022-10-16T04:49:48;25.55;;;14.70;;
18304;SDS011;9278;52.156;21.048;2022-10-16T04:52:16;30.42;;;15.52;;
18304;SDS011;9278;52.156;21.048;2022-10-16T04:54:45;27.35;;;15.40;;
18304;SDS011;9278;52.156;21.048;2022-10-16T04:57:13;28.77;;;15.77;;
18304;SDS011;9278;52.156;21.048;2022-10-16T04:59:41;27.77;;;15.75;;
18304;SDS011;9278;52.156;21.048;2022-10-16T05:02:11;28.17;;;15.57;;
18304;SDS011;9278;52.156;21.048;2022-10-16T05:04:40;28.30;;;14.98;;
18304;SDS011;9278;52.156;21.048;2022-10-16T05:07:08;29.73;;;16.20;;
18304;SDS011;9278;52.156;21.048;2022-10-16T05:09:36;26.92;;;16.15;;
18304;SDS011;9278;52.156;21.048;2022-10-16T05:12:04;29.25;;;16.45;;
18304;SDS011;9278;52.156;21.048;2022-10-16T05:14:33;31.40;;;16.40;;
18304;SDS011;9278;52.156;21.048;2022-10-16T05:17:01;31.98;;;15.85;;
18304;SDS011;9278;52.156;21.048;2022-10-16T05:19:30;31.80;;;16.42;;
18304;SDS011;9278;52.156;21.048;2022-10-16T05:21:59;28.38;;;15.40;;
18304;SDS011;9278;52.156;21.048;2022-10-16T05:24:27;30.75;;;16.38;;
18304;SDS011;9278;52.156;21.048;2022-10-16T05:26:55;29.30;;;16.38;;
18304;SDS011;9278;52.156;21.048;2022-10-16T05:29:24;25.75;;;14.93;;
18304;SDS011;9278;52.156;21.048;2022-10-16T05:31:53;29.83;;;15.05;;
18304;SDS011;9278;52.156;21.048;2022-10-16T05:34:21;29.15;;;15.55;;
18304;SDS011;9278;52.156;21.048;2022-10-16T05:36:50;29.23;;;15.75;;
18304;SDS011;9278;52.156;21.048;2022-10-16T05:39:19;27.30;;;15.48;;
18304;SDS011;9278;52.156;21.048;2022-10-16T05:41:49;27.90;;;15.32;;
18304;SDS011;9278;52.156;21.048;2022-10-16T05:44:18;26.52;;;15.50;;
18304;SDS011;9278;52.156;21.048;2022-10-16T05:46:47;30.23;;;15.90;;
18304;SDS011;9278;52.156;21.048;2022-10-16T05:49:15;31.85;;;16.67;;
18304;SDS011;9278;52.156;21.048;2022-10-16T05:51:43;26.20;;;14.73;;
18304;SDS011;9278;52.156;21.048;2022-10-16T05:54:13;27.77;;;15.60;;
18304;SDS011;9278;52.156;21.048;2022-10-16T05:56:42;24.45;;;14.95;;
18304;SDS011;9278;52.156;21.048;2022-10-16T05:59:10;35.33;;;16.00;;
18304;SDS011;9278;52.156;21.048;2022-10-16T06:01:38;27.80;;;15.88;;
18304;SDS011;9278;52.156;21.048;2022-10-16T06:04:07;26.92;;;15.50;;
18304;SDS011;9278;52.156;21.048;2022-10-16T06:06:36;27.05;;;16.42;;
18304;SDS011;9278;52.156;21.048;2022-10-16T06:09:05;27.35;;;15.60;;
18304;SDS011;9278;52.156;21.048;2022-10-16T06:11:34;29.05;;;15.48;;
18304;SDS011;9278;52.156;21.048;2022-10-16T06:14:04;27.67;;;15.40;;
18304;SDS011;9278;52.156;21.048;2022-10-16T06:16:33;26.30;;;15.48;;
18304;SDS011;9278;52.156;21.048;2022-10-16T06:19:02;25.55;;;15.27;;
18304;SDS011;9278;52.156;21.048;2022-10-16T06:21:32;29.00;;;14.70;;
18304;SDS011;9278;52.156;21.048;2022-10-16T06:24:01;26.83;;;14.82;;
18304;SDS011;9278;52.156;21.048;2022-10-16T06:26:29;29.20;;;15.80;;
18304;SDS011;9278;52.156;21.048;2022-10-16T06:29:00;26.50;;;15.77;;
18304;SDS011;9278;52.156;21.048;2022-10-16T06:31:28;22.98;;;14.43;;
18304;SDS011;9278;52.156;21.048;2022-10-16T06:34:00;29.20;;;15.38;;
18304;SDS011;9278;52.156;21.048;2022-10-16T06:36:28;25.42;;;14.98;;
18304;SDS011;9278;52.156;21.048;2022-10-16T06:38:56;28.50;;;14.82;;
18304;SDS011;9278;52.156;21.048;2022-10-16T06:41:25;26.92;;;14.82;;
18304;SDS011;9278;52.156;21.048;2022-10-16T06:43:53;26.55;;;15.30;;
18304;SDS011;9278;52.156;21.048;2022-10-16T06:46:23;25.30;;;14.90;;
18304;SDS011;9278;52.156;21.048;2022-10-16T06:48:52;31.48;;;14.90;;
18304;SDS011;9278;52.156;21.048;2022-10-16T06:51:21;32.60;;;15.10;;
18304;SDS011;9278;52.156;21.048;2022-10-16T06:53:51;27.52;;;14.93;;
18304;SDS011;9278;52.156;21.048;2022-10-16T06:56:30;25.90;;;14.25;;
18304;SDS011;9278;52.156;21.048;2022-10-16T06:59:00;25.50;;;14.13;;
18304;SDS011;9278;52.156;21.048;2022-10-16T07:01:30;25.63;;;13.75;;
18304;SDS011;9278;52.156;21.048;2022-10-16T07:03:59;29.67;;;14.45;;
18304;SDS011;9278;52.156;21.048;2022-10-16T07:06:30;28.08;;;15.18;;
18304;SDS011;9278;52.156;21.048;2022-10-16T07:09:00;24.60;;;13.88;;
18304;SDS011;9278;52.156;21.048;2022-10-16T07:11:31;23.23;;;14.60;;
18304;SDS011;9278;52.156;21.048;2022-10-16T07:14:00;24.50;;;14.27;;
18304;SDS011;9278;52.156;21.048;2022-10-16T07:16:31;24.70;;;14.68;;
18304;SDS011;9278;52.156;21.048;2022-10-16T07:19:02;24.30;;;14.85;;
18304;SDS011;9278;52.156;21.048;2022-10-16T07:21:31;20.15;;;12.52;;
18304;SDS011;9278;52.156;21.048;2022-10-16T07:24:03;24.00;;;14.30;;
18304;SDS011;9278;52.156;21.048;2022-10-16T07:26:33;24.02;;;13.45;;
18304;SDS011;9278;52.156;21.048;2022-10-16T07:29:02;23.23;;;13.73;;
18304;SDS011;9278;52.156;21.048;2022-10-16T07:31:32;29.77;;;14.27;;
18304;SDS011;9278;52.156;21.048;2022-10-16T07:34:00;22.38;;;13.30;;
18304;SDS011;9278;52.156;21.048;2022-10-16T07:36:29;22.27;;;13.07;;
18304;SDS011;9278;52.156;21.048;2022-10-16T07:38:57;25.75;;;14.10;;
18304;SDS011;9278;52.156;21.048;2022-10-16T07:41:26;20.42;;;13.15;;
18304;SDS011;9278;52.156;21.048;2022-10-16T07:43:55;26.23;;;12.80;;
18304;SDS011;9278;52.156;21.048;2022-10-16T07:46:27;23.70;;;13.77;;
18304;SDS011;9278;52.156;21.048;2022-10-16T07:48:57;21.98;;;13.52;;
18304;SDS011;9278;52.156;21.048;2022-10-16T07:51:25;23.40;;;13.60;;
18304;SDS011;9278;52.156;21.048;2022-10-16T07:53:54;24.23;;;13.50;;
18304;SDS011;9278;52.156;21.048;2022-10-16T07:56:23;20.48;;;13.30;;
18304;SDS011;9278;52.156;21.048;2022-10-16T07:58:51;23.10;;;13.10;;
18304;SDS011;9278;52.156;21.048;2022-10-16T08:01:20;25.77;;;13.80;;
18304;SDS011;9278;52.156;21.048;2022-10-16T08:03:49;20.10;;;12.88;;
18304;SDS011;9278;52.156;21.048;2022-10-16T08:06:20;22.13;;;13.63;;
18304;SDS011;9278;52.156;21.048;2022-10-16T08:08:53;24.95;;;13.55;;
18304;SDS011;9278;52.156;21.048;2022-10-16T08:11:22;21.45;;;13.20;;
18304;SDS011;9278;52.156;21.048;2022-10-16T08:13:51;21.75;;;12.63;;
18304;SDS011;9278;52.156;21.048;2022-10-16T08:16:19;22.77;;;12.35;;
18304;SDS011;9278;52.156;21.048;2022-10-16T08:18:48;20.55;;;13.10;;
18304;SDS011;9278;52.156;21.048;2022-10-16T08:21:18;25.33;;;12.43;;
18304;SDS011;9278;52.156;21.048;2022-10-16T08:23:49;23.63;;;13.13;;
18304;SDS011;9278;52.156;21.048;2022-10-16T08:26:23;20.38;;;12.70;;
18304;SDS011;9278;52.156;21.048;2022-10-16T08:28:52;26.63;;;13.52;;
18304;SDS011;9278;52.156;21.048;2022-10-16T08:31:21;22.63;;;13.23;;
18304;SDS011;9278;52.156;21.048;2022-10-16T08:33:49;23.75;;;13.27;;
18304;SDS011;9278;52.156;21.048;2022-10-16T08:36:20;20.23;;;12.05;;
18304;SDS011;9278;52.156;21.048;2022-10-16T08:38:48;19.33;;;11.52;;
18304;SDS011;9278;52.156;21.048;2022-10-16T08:41:22;19.08;;;12.25;;
18304;SDS011;9278;52.156;21.048;2022-10-16T08:44:09;26.73;;;12.55;;
18304;SDS011;9278;52.156;21.048;2022-10-16T08:47:00;21.35;;;11.85;;
18304;SDS011;9278;52.156;21.048;2022-10-16T08:49:35;19.27;;;12.05;;
18304;SDS011;9278;52.156;21.048;2022-10-16T08:52:08;20.00;;;11.80;;
18304;SDS011;9278;52.156;21.048;2022-10-16T08:54:41;19.05;;;11.70;;
18304;SDS011;9278;52.156;21.048;2022-10-16T08:57:13;17.65;;;11.60;;
18304;SDS011;9278;52.156;21.048;2022-10-16T08:59:49;22.13;;;11.85;;
18304;SDS011;9278;52.156;21.048;2022-10-16T09:02:22;19.55;;;11.80;;
18304;SDS011;9278;52.156;21.048;2022-10-16T09:05:00;19.08;;;11.80;;
18304;SDS011;9278;52.156;21.048;2022-10-16T09:07:43;17.48;;;11.73;;
18304;SDS011;9278;52.156;21.048;2022-10-16T09:10:21;19.85;;;12.02;;
18304;SDS011;9278;52.156;21.048;2022-10-16T09:12:58;23.15;;;12.07;;
18304;SDS011;9278;52.156;21.048;2022-10-16T09:15:34;19.90;;;12.05;;
18304;SDS011;9278;52.156;21.048;2022-10-16T09:18:09;19.75;;;11.73;;
18304;SDS011;9278;52.156;21.048;2022-10-16T09:20:45;16.55;;;10.60;;
18304;SDS011;9278;52.156;21.048;2022-10-16T09:23:22;16.92;;;10.88;;
18304;SDS011;9278;52.156;21.048;2022-10-16T09:25:55;17.70;;;11.25;;
18304;SDS011;9278;52.156;21.048;2022-10-16T09:28:27;20.83;;;11.55;;
18304;SDS011;9278;52.156;21.048;2022-10-16T09:30:55;19.48;;;10.48;;
18304;SDS011;9278;52.156;21.048;2022-10-16T09:33:24;19.23;;;11.07;;
18304;SDS011;9278;52.156;21.048;2022-10-16T09:35:56;17.95;;;10.85;;
18304;SDS011;9278;52.156;21.048;2022-10-16T09:38:28;21.58;;;11.43;;
18304;SDS011;9278;52.156;21.048;2022-10-16T09:40:58;23.98;;;10.93;;
18304;SDS011;9278;52.156;21.048;2022-10-16T09:43:31;20.00;;;11.68;;
18304;SDS011;9278;52.156;21.048;2022-10-16T09:46:03;23.48;;;11.65;;
18304;SDS011;9278;52.156;21.048;2022-10-16T09:48:34;19.92;;;10.75;;
18304;SDS011;9278;52.156;21.048;2022-10-16T09:51:06;18.17;;;11.10;;
18304;SDS011;9278;52.156;21.048;2022-10-16T09:53:57;19.35;;;11.00;;
18304;SDS011;9278;52.156;21.048;2022-10-16T09:56:28;16.83;;;10.95;;
18304;SDS011;9278;52.156;21.048;2022-10-16T09:58:59;19.50;;;11.45;;
18304;SDS011;9278;52.156;21.048;2022-10-16T10:01:30;18.65;;;10.80;;
18304;SDS011;9278;52.156;21.048;2022-10-16T10:04:04;16.70;;;11.00;;
18304;SDS011;9278;52.156;21.048;2022-10-16T10:06:33;18.83;;;11.15;;
18304;SDS011;9278;52.156;21.048;2022-10-16T10:09:13;17.27;;;10.95;;
18304;SDS011;9278;52.156;21.048;2022-10-16T10:11:47;17.20;;;11.07;;
18304;SDS011;9278;52.156;21.048;2022-10-16T10:14:18;18.33;;;10.40;;
18304;SDS011;9278;52.156;21.048;2022-10-16T10:16:50;18.35;;;9.73;;
18304;SDS011;9278;52.156;21.048;2022-10-16T10:19:20;17.10;;;10.32;;
18304;SDS011;9278;52.156;21.048;2022-10-16T10:21:53;14.95;;;9.70;;
18304;SDS011;9278;52.156;21.048;2022-10-16T10:24:23;19.38;;;10.25;;
18304;SDS011;9278;52.156;21.048;2022-10-16T10:26:54;22.25;;;10.85;;
18304;SDS011;9278;52.156;21.048;2022-10-16T10:29:35;21.48;;;10.40;;
18304;SDS011;9278;52.156;21.048;2022-10-16T10:32:17;18.73;;;10.20;;
18304;SDS011;9278;52.156;21.048;2022-10-16T10:34:56;16.60;;;10.30;;
18304;SDS011;9278;52.156;21.048;2022-10-16T10:37:38;17.33;;;9.70;;
18304;SDS011;9278;52.156;21.048;2022-10-16T10:40:28;17.00;;;9.45;;
18304;SDS011;9278;52.156;21.048;2022-10-16T10:43:08;17.60;;;9.55;;
18304;SDS011;9278;52.156;21.048;2022-10-16T10:45:47;14.80;;;9.20;;
18304;SDS011;9278;52.156;21.048;2022-10-16T10:48:22;16.83;;;9.40;;
18304;SDS011;9278;52.156;21.048;2022-10-16T10:51:03;15.27;;;9.35;;
18304;SDS011;9278;52.156;21.048;2022-10-16T10:53:39;20.48;;;10.00;;
18304;SDS011;9278;52.156;21.048;2022-10-16T10:56:22;16.52;;;9.90;;
18304;SDS011;9278;52.156;21.048;2022-10-16T11:02:18;15.75;;;9.50;;
18304;SDS011;9278;52.156;21.048;2022-10-16T11:07:49;14.82;;;9.27;;
18304;SDS011;9278;52.156;21.048;2022-10-16T11:10:22;16.55;;;9.93;;
18304;SDS011;9278;52.156;21.048;2022-10-16T11:12:55;16.75;;;9.25;;
18304;SDS011;9278;52.156;21.048;2022-10-16T11:15:29;18.55;;;10.63;;
18304;SDS011;9278;52.156;21.048;2022-10-16T11:18:00;15.43;;;9.15;;
18304;SDS011;9278;52.156;21.048;2022-10-16T11:20:34;14.18;;;9.45;;
18304;SDS011;9278;52.156;21.048;2022-10-16T11:23:06;17.50;;;9.75;;
18304;SDS011;9278;52.156;21.048;2022-10-16T11:25:42;18.65;;;9.70;;
18304;SDS011;9278;52.156;21.048;2022-10-16T11:28:13;17.40;;;9.65;;
18304;SDS011;9278;52.156;21.048;2022-10-16T11:30:44;15.57;;;9.15;;
18304;SDS011;9278;52.156;21.048;2022-10-16T11:33:23;13.88;;;9.32;;
18304;SDS011;9278;52.156;21.048;2022-10-16T11:36:00;17.48;;;9.07;;
18304;SDS011;9278;52.156;21.048;2022-10-16T11:38:34;12.48;;;8.38;;
18304;SDS011;9278;52.156;21.048;2022-10-16T11:41:10;14.73;;;9.40;;
18304;SDS011;9278;52.156;21.048;2022-10-16T11:43:48;16.90;;;9.30;;
18304;SDS011;9278;52.156;21.048;2022-10-16T11:46:25;18.20;;;9.07;;
18304;SDS011;9278;52.156;21.048;2022-10-16T11:48:56;13.05;;;8.52;;
18304;SDS011;9278;52.156;21.048;2022-10-16T11:51:32;17.13;;;8.70;;
18304;SDS011;9278;52.156;21.048;2022-10-16T11:54:04;15.57;;;9.52;;
18304;SDS011;9278;52.156;21.048;2022-10-16T11:56:41;19.10;;;10.15;;
18304;SDS011;9278;52.156;21.048;2022-10-16T11:59:16;14.65;;;8.73;;
18304;SDS011;9278;52.156;21.048;2022-10-16T12:01:53;16.98;;;9.02;;
18304;SDS011;9278;52.156;21.048;2022-10-16T12:04:28;14.80;;;8.93;;
18304;SDS011;9278;52.156;21.048;2022-10-16T12:07:02;15.52;;;8.63;;
18304;SDS011;9278;52.156;21.048;2022-10-16T12:09:36;17.00;;;9.15;;
18304;SDS011;9278;52.156;21.048;2022-10-16T12:15:02;14.10;;;8.52;;
18304;SDS011;9278;52.156;21.048;2022-10-16T12:18:00;14.50;;;9.90;;
18304;SDS011;9278;52.156;21.048;2022-10-16T12:20:29;12.07;;;8.52;;
18304;SDS011;9278;52.156;21.048;2022-10-16T12:22:59;13.90;;;9.10;;
18304;SDS011;9278;52.156;21.048;2022-10-16T12:25:30;18.05;;;8.35;;
18304;SDS011;9278;52.156;21.048;2022-10-16T12:28:00;14.57;;;8.13;;
18304;SDS011;9278;52.156;21.048;2022-10-16T12:30:33;14.10;;;9.18;;
18304;SDS011;9278;52.156;21.048;2022-10-16T12:33:03;15.48;;;8.63;;
18304;SDS011;9278;52.156;21.048;2022-10-16T12:35:34;14.05;;;8.85;;
18304;SDS011;9278;52.156;21.048;2022-10-16T12:38:15;15.43;;;9.38;;
18304;SDS011;9278;52.156;21.048;2022-10-16T12:40:46;13.70;;;8.40;;
18304;SDS011;9278;52.156;21.048;2022-10-16T12:43:27;12.70;;;8.80;;
18304;SDS011;9278;52.156;21.048;2022-10-16T12:46:06;16.02;;;8.95;;
18304;SDS011;9278;52.156;21.048;2022-10-16T12:48:50;14.30;;;8.73;;
18304;SDS011;9278;52.156;21.048;2022-10-16T12:51:34;12.77;;;8.25;;
18304;SDS011;9278;52.156;21.048;2022-10-16T12:54:04;17.20;;;9.25;;
18304;SDS011;9278;52.156;21.048;2022-10-16T12:56:41;22.48;;;9.50;;
18304;SDS011;9278;52.156;21.048;2022-10-16T12:59:20;20.48;;;9.00;;
18304;SDS011;9278;52.156;21.048;2022-10-16T13:02:01;13.63;;;8.50;;
18304;SDS011;9278;52.156;21.048;2022-10-16T13:04:45;15.95;;;9.40;;
18304;SDS011;9278;52.156;21.048;2022-10-16T13:07:37;12.98;;;9.15;;
18304;SDS011;9278;52.156;21.048;2022-10-16T13:10:18;14.40;;;8.68;;
18304;SDS011;9278;52.156;21.048;2022-10-16T13:12:57;14.85;;;9.00;;
18304;SDS011;9278;52.156;21.048;2022-10-16T13:15:44;11.90;;;8.13;;
18304;SDS011;9278;52.156;21.048;2022-10-16T13:18:22;12.68;;;7.80;;
18304;SDS011;9278;52.156;21.048;2022-10-16T13:21:03;15.60;;;8.30;;
18304;SDS011;9278;52.156;21.048;2022-10-16T13:23:46;11.18;;;7.70;;
18304;SDS011;9278;52.156;21.048;2022-10-16T13:26:23;14.43;;;8.35;;
18304;SDS011;9278;52.156;21.048;2022-10-16T13:28:59;12.07;;;7.88;;
18304;SDS011;9278;52.156;21.048;2022-10-16T13:31:28;17.02;;;8.35;;
18304;SDS011;9278;52.156;21.048;2022-10-16T13:33:58;16.60;;;8.50;;
18304;SDS011;9278;52.156;21.048;2022-10-16T13:36:29;11.75;;;8.07;;
18304;SDS011;9278;52.156;21.048;2022-10-16T13:39:06;16.27;;;8.40;;
18304;SDS011;9278;52.156;21.048;2022-10-16T13:41:40;13.65;;;8.13;;
18304;SDS011;9278;52.156;21.048;2022-10-16T13:44:12;16.98;;;8.13;;
18304;SDS011;9278;52.156;21.048;2022-10-16T13:46:42;12.52;;;8.57;;
18304;SDS011;9278;52.156;21.048;2022-10-16T13:49:13;14.70;;;8.95;;
18304;SDS011;9278;52.156;21.048;2022-10-16T13:51:53;13.15;;;7.97;;
18304;SDS011;9278;52.156;21.048;2022-10-16T13:54:22;15.18;;;8.50;;
18304;SDS011;9278;52.156;21.048;2022-10-16T13:56:51;17.35;;;8.50;;
18304;SDS011;9278;52.156;21.048;2022-10-16T13:59:35;14.02;;;8.02;;
18304;SDS011;9278;52.156;21.048;2022-10-16T14:02:06;13.95;;;8.35;;
18304;SDS011;9278;52.156;21.048;2022-10-16T14:04:44;13.95;;;8.82;;
18304;SDS011;9278;52.156;21.048;2022-10-16T14:07:14;14.95;;;8.30;;
18304;SDS011;9278;52.156;21.048;2022-10-16T14:09:48;12.88;;;7.68;;
18304;SDS011;9278;52.156;21.048;2022-10-16T14:12:17;12.20;;;8.20;;
18304;SDS011;9278;52.156;21.048;2022-10-16T14:14:51;15.85;;;8.30;;
18304;SDS011;9278;52.156;21.048;2022-10-16T14:17:22;16.50;;;8.50;;
18304;SDS011;9278;52.156;21.048;2022-10-16T14:19:54;13.50;;;8.35;;
18304;SDS011;9278;52.156;21.048;2022-10-16T14:22:32;13.15;;;8.65;;
18304;SDS011;9278;52.156;21.048;2022-10-16T14:25:02;13.52;;;8.35;;
18304;SDS011;9278;52.156;21.048;2022-10-16T14:27:56;18.55;;;8.25;;
18304;SDS011;9278;52.156;21.048;2022-10-16T14:30:32;15.18;;;8.35;;
18304;SDS011;9278;52.156;21.048;2022-10-16T14:33:03;15.57;;;8.63;;
18304;SDS011;9278;52.156;21.048;2022-10-16T14:35:34;17.05;;;8.18;;
18304;SDS011;9278;52.156;21.048;2022-10-16T14:38:05;18.85;;;8.38;;
18304;SDS011;9278;52.156;21.048;2022-10-16T14:40:46;14.77;;;9.65;;
18304;SDS011;9278;52.156;21.048;2022-10-16T14:43:17;13.30;;;7.82;;
18304;SDS011;9278;52.156;21.048;2022-10-16T14:45:51;12.48;;;8.43;;
18304;SDS011;9278;52.156;21.048;2022-10-16T14:48:20;14.13;;;8.95;;
18304;SDS011;9278;52.156;21.048;2022-10-16T14:50:50;15.57;;;8.70;;
18304;SDS011;9278;52.156;21.048;2022-10-16T14:53:19;16.48;;;8.73;;
18304;SDS011;9278;52.156;21.048;2022-10-16T14:55:47;13.02;;;8.63;;
18304;SDS011;9278;52.156;21.048;2022-10-16T14:58:16;16.25;;;8.23;;
18304;SDS011;9278;52.156;21.048;2022-10-16T15:00:46;16.40;;;8.32;;
18304;SDS011;9278;52.156;21.048;2022-10-16T15:03:15;13.77;;;8.43;;